createdAt,value
2019-04-05T00:00:11.790Z,9.13
2019-04-05T00:02:38.991Z,8.97
2019-04-05T00:05:06.192Z,9.57
2019-04-05T00:07:33.372Z,8.20
2019-04-05T00:10:00.551Z,10.10
2019-04-05T00:12:27.736Z,9.40
2019-04-05T00:14:54.934Z,9.03
2019-04-05T00:17:22.594Z,9.67
2019-04-05T00:19:49.765Z,9.90
2019-04-05T00:22:16.941Z,9.03
2019-04-05T00:24:44.111Z,8.83
2019-04-05T00:27:11.314Z,10.63
2019-04-05T00:29:38.478Z,9.30
2019-04-05T00:32:05.646Z,9.23
2019-04-05T00:34:32.845Z,8.97
2019-04-05T00:37:00.039Z,9.67
2019-04-05T00:39:27.205Z,9.80
2019-04-05T00:41:54.399Z,9.07
2019-04-05T00:44:21.595Z,9.63
2019-04-05T00:46:48.788Z,9.67
2019-04-05T00:49:15.974Z,9.70
2019-04-05T00:51:43.183Z,9.47
2019-04-05T00:54:10.356Z,9.90
2019-04-05T00:56:37.524Z,10.13
2019-04-05T01:01:46.795Z,11.90
2019-04-05T01:04:13.977Z,10.07
2019-04-05T01:06:41.163Z,9.03
2019-04-05T01:09:08.422Z,9.70
2019-04-05T01:11:35.616Z,9.50
2019-04-05T01:14:02.818Z,11.53
2019-04-05T01:16:30.067Z,9.60
2019-04-05T01:18:57.286Z,9.70
2019-04-05T01:21:24.626Z,10.13
2019-04-05T01:23:52.879Z,10.90
2019-04-05T01:26:20.074Z,10.07
2019-04-05T01:28:47.267Z,10.60
2019-04-05T01:31:14.475Z,10.50
2019-04-05T01:33:41.734Z,10.00
2019-04-05T01:36:08.902Z,10.27
2019-04-05T01:38:36.094Z,9.47
2019-04-05T01:41:03.292Z,9.77
2019-04-05T01:43:30.483Z,10.13
2019-04-05T01:45:57.663Z,11.17
2019-04-05T01:48:24.892Z,10.37
2019-04-05T01:50:52.131Z,9.73
2019-04-05T01:53:19.319Z,10.90
2019-04-05T01:55:46.495Z,10.67
2019-04-05T01:58:13.682Z,10.30
2019-04-05T02:00:40.918Z,10.50
2019-04-05T02:03:08.098Z,10.03
2019-04-05T02:05:35.306Z,10.70
2019-04-05T02:08:02.560Z,9.63
2019-04-05T02:10:29.754Z,9.60
2019-04-05T02:12:56.947Z,10.80
2019-04-05T02:15:28.443Z,11.13
2019-04-05T02:17:56.144Z,10.00
2019-04-05T02:20:23.357Z,11.27
2019-04-05T02:22:50.555Z,10.80
2019-04-05T02:25:17.737Z,11.07
2019-04-05T02:27:44.928Z,10.57
2019-04-05T02:30:12.119Z,11.43
2019-04-05T02:32:39.398Z,11.47
2019-04-05T02:35:06.567Z,10.43
2019-04-05T02:37:33.753Z,11.63
2019-04-05T02:40:01.017Z,12.07
2019-04-05T02:42:28.214Z,10.50
2019-04-05T02:44:55.400Z,11.37
2019-04-05T02:47:22.587Z,11.83
2019-04-05T02:49:49.776Z,10.87
2019-04-05T02:52:16.975Z,11.10
2019-04-05T02:54:44.242Z,11.47
2019-04-05T02:57:11.514Z,11.37
2019-04-05T02:59:38.768Z,11.00
2019-04-05T03:02:05.978Z,10.33
2019-04-05T03:04:33.180Z,11.20
2019-04-05T03:07:00.421Z,10.93
2019-04-05T03:09:27.602Z,10.67
2019-04-05T03:11:54.824Z,10.93
2019-04-05T03:14:22.066Z,11.40
2019-04-05T03:16:50.769Z,10.37
2019-04-05T03:19:19.329Z,9.73
2019-04-05T03:21:48.378Z,10.37
2019-04-05T03:24:16.696Z,12.17
2019-04-05T03:26:46.298Z,11.63
2019-04-05T03:29:13.493Z,11.77
2019-04-05T03:31:40.691Z,11.47
2019-04-05T03:34:07.870Z,10.63
2019-04-05T03:36:35.056Z,11.67
2019-04-05T03:39:02.280Z,11.10
2019-04-05T03:41:29.511Z,10.73
2019-04-05T03:43:56.727Z,11.60
2019-04-05T03:46:23.916Z,11.93
2019-04-05T03:48:51.096Z,11.17
2019-04-05T03:51:18.351Z,11.43
2019-04-05T03:53:45.545Z,11.83
2019-04-05T03:56:12.737Z,11.67
2019-04-05T03:58:39.920Z,12.13
2019-04-05T04:01:07.099Z,11.50
2019-04-05T04:03:34.283Z,12.07
2019-04-05T04:06:01.719Z,11.67
2019-04-05T04:08:28.911Z,12.03
2019-04-05T04:10:56.098Z,12.00
2019-04-05T04:13:23.283Z,11.97
2019-04-05T04:15:50.471Z,12.03
2019-04-05T04:18:17.662Z,12.30
2019-04-05T04:20:46.562Z,11.77
2019-04-05T04:23:13.838Z,11.67
2019-04-05T04:25:41.115Z,12.57
2019-04-05T04:28:08.308Z,11.73
2019-04-05T04:30:35.474Z,10.87
2019-04-05T04:33:02.950Z,12.10
2019-04-05T04:35:30.220Z,12.47
2019-04-05T04:37:57.512Z,12.40
2019-04-05T04:40:24.693Z,10.83
2019-04-05T04:42:51.898Z,12.10
2019-04-05T04:45:19.082Z,11.90
2019-04-05T04:47:46.281Z,10.83
2019-04-05T04:50:13.465Z,12.07
2019-04-05T04:52:40.654Z,12.17
2019-04-05T04:55:07.825Z,13.23
2019-04-05T04:57:35.002Z,12.17
2019-04-05T05:00:02.200Z,13.07
2019-04-05T05:02:29.450Z,12.63
2019-04-05T05:04:56.658Z,12.03
2019-04-05T05:07:23.850Z,12.10
2019-04-05T05:09:51.574Z,12.97
2019-04-05T05:12:18.765Z,13.33
2019-04-05T05:14:45.938Z,12.70
2019-04-05T05:17:13.141Z,13.53
2019-04-05T05:19:40.314Z,13.87
2019-04-05T05:22:07.518Z,13.37
2019-04-05T05:24:34.735Z,13.33
2019-04-05T05:27:01.940Z,13.37
2019-04-05T05:29:29.196Z,12.13
2019-04-05T05:31:56.382Z,13.10
2019-04-05T05:34:23.563Z,11.87
2019-04-05T05:36:50.780Z,13.73
2019-04-05T05:39:17.972Z,12.47
2019-04-05T05:41:45.226Z,13.23
2019-04-05T05:44:12.428Z,13.17
2019-04-05T05:46:39.695Z,13.50
2019-04-05T05:49:07.139Z,12.77
2019-04-05T05:51:34.388Z,13.43
2019-04-05T05:54:01.574Z,13.27
2019-04-05T05:56:28.747Z,14.20
2019-04-05T05:58:59.420Z,13.37
2019-04-05T06:01:24.864Z,13.20
2019-04-05T06:03:52.055Z,12.83
2019-04-05T06:06:19.238Z,13.13
2019-04-05T06:08:46.414Z,12.07
2019-04-05T06:11:13.598Z,13.93
2019-04-05T06:13:40.854Z,13.93
2019-04-05T06:16:08.040Z,13.27
2019-04-05T06:18:35.226Z,13.83
2019-04-05T06:21:03.549Z,13.57
2019-04-05T06:23:33.857Z,15.27
2019-04-05T06:26:00.248Z,16.60
2019-04-05T06:28:27.560Z,13.80
2019-04-05T06:30:55.694Z,13.87
2019-04-05T06:33:31.442Z,14.47
2019-04-05T06:35:51.793Z,16.67
2019-04-05T06:38:19.646Z,14.83
2019-04-05T06:40:46.837Z,15.77
2019-04-05T06:43:14.036Z,16.67
2019-04-05T06:45:41.267Z,15.60
2019-04-05T06:48:18.929Z,14.77
2019-04-05T06:50:37.388Z,16.30
2019-04-05T06:53:05.076Z,20.63
2019-04-05T06:55:32.913Z,21.20
2019-04-05T06:58:00.107Z,22.10
2019-04-05T07:00:28.925Z,22.33
2019-04-05T07:02:56.968Z,20.83
2019-04-05T07:05:24.154Z,20.37
2019-04-05T07:07:51.330Z,24.57
2019-04-05T07:10:18.525Z,25.63
2019-04-05T07:12:45.741Z,26.50
2019-04-05T07:15:12.962Z,29.47
2019-04-05T07:17:40.142Z,27.23
2019-04-05T07:20:07.342Z,31.07
2019-04-05T07:22:39.152Z,31.53
2019-04-05T07:25:04.108Z,28.30
2019-04-05T07:27:31.303Z,28.40
2019-04-05T07:29:58.484Z,29.93
2019-04-05T07:32:25.717Z,31.10
2019-04-05T07:34:52.951Z,31.23
2019-04-05T07:37:20.126Z,33.10
2019-04-05T07:39:47.311Z,33.77
2019-04-05T07:42:14.503Z,32.70
2019-04-05T07:44:41.684Z,31.00
2019-04-05T07:47:08.914Z,31.60
2019-04-05T07:49:36.098Z,31.03
2019-04-05T07:52:03.275Z,33.27
2019-04-05T07:54:31.119Z,34.23
2019-04-05T07:56:58.323Z,33.27
2019-04-05T07:59:25.586Z,32.77
2019-04-05T08:01:52.784Z,34.07
2019-04-05T08:04:20.518Z,33.77
2019-04-05T08:06:47.719Z,31.87
2019-04-05T08:09:14.904Z,36.37
2019-04-05T08:11:42.448Z,30.03
2019-04-05T08:14:10.880Z,33.73
2019-04-05T08:16:38.081Z,33.10
2019-04-05T08:19:05.267Z,31.70
2019-04-05T08:21:32.458Z,32.17
2019-04-05T08:23:59.653Z,32.73
2019-04-05T08:26:26.905Z,33.17
2019-04-05T08:28:54.118Z,31.17
2019-04-05T08:31:21.291Z,33.17
2019-04-05T08:33:48.481Z,35.30
2019-04-05T08:36:15.843Z,35.27
2019-04-05T08:38:43.011Z,31.87
2019-04-05T08:41:10.231Z,34.43
2019-04-05T08:43:37.468Z,33.00
2019-04-05T08:46:04.645Z,36.67
2019-04-05T08:48:31.842Z,34.30
2019-04-05T08:50:59.112Z,35.03
2019-04-05T08:53:26.304Z,32.80
2019-04-05T08:55:53.491Z,33.27
2019-04-05T08:58:32.591Z,35.17
2019-04-05T09:00:49.603Z,36.00
2019-04-05T09:03:16.766Z,36.73
2019-04-05T09:05:43.933Z,37.90
2019-04-05T09:08:11.136Z,35.67
2019-04-05T09:10:38.331Z,35.10
2019-04-05T09:13:05.530Z,38.53
2019-04-05T09:15:32.699Z,40.50
2019-04-05T09:17:59.900Z,37.37
2019-04-05T09:20:27.085Z,36.43
2019-04-05T09:22:54.280Z,39.93
2019-04-05T09:25:21.457Z,38.13
2019-04-05T09:27:48.642Z,39.63
2019-04-05T09:30:15.839Z,39.57
2019-04-05T09:32:43.038Z,36.90
2019-04-05T09:35:10.252Z,42.07
2019-04-05T09:37:37.513Z,40.23
2019-04-05T09:40:05.996Z,43.30
2019-04-05T09:42:33.169Z,40.47
2019-04-05T09:45:00.355Z,42.07
2019-04-05T09:47:27.606Z,39.83
2019-04-05T09:49:54.773Z,41.43
2019-04-05T09:52:21.954Z,41.43
2019-04-05T09:54:49.142Z,45.10
2019-04-05T09:57:16.315Z,40.60
2019-04-05T09:59:43.516Z,40.07
2019-04-05T10:02:10.721Z,43.10
2019-04-05T10:04:37.974Z,44.20
2019-04-05T10:07:05.177Z,46.40
2019-04-05T10:09:32.363Z,44.13
2019-04-05T10:11:59.541Z,45.70
2019-04-05T10:14:26.722Z,45.90
2019-04-05T10:16:53.926Z,44.77
2019-04-05T10:19:21.093Z,42.87
2019-04-05T10:21:48.271Z,45.40
2019-04-05T10:24:15.443Z,44.60
2019-04-05T10:26:42.708Z,45.97
2019-04-05T10:29:09.892Z,47.57
2019-04-05T10:31:37.130Z,44.27
2019-04-05T10:34:04.341Z,39.80
2019-04-05T10:36:31.528Z,42.97
2019-04-05T10:38:58.707Z,42.37
2019-04-05T10:41:25.883Z,42.47
2019-04-05T10:43:53.071Z,41.63
2019-04-05T10:46:20.242Z,46.40
2019-04-05T10:48:47.422Z,45.60
2019-04-05T10:51:14.619Z,41.17
2019-04-05T10:53:41.793Z,41.40
2019-04-05T10:56:08.985Z,44.00
2019-04-05T10:58:36.150Z,44.17
2019-04-05T11:01:03.337Z,48.60
2019-04-05T11:03:30.522Z,46.20
2019-04-05T11:05:57.707Z,43.30
2019-04-05T11:08:24.883Z,48.53
2019-04-05T11:10:52.082Z,46.90
2019-04-05T11:13:19.256Z,46.37
2019-04-05T11:15:47.283Z,50.03
2019-04-05T11:18:14.494Z,48.20
2019-04-05T11:20:41.730Z,43.97
2019-04-05T11:23:08.918Z,44.07
2019-04-05T11:25:36.112Z,48.40
2019-04-05T11:28:04.109Z,46.00
2019-04-05T11:30:38.886Z,43.37
2019-04-05T11:33:06.062Z,40.13
2019-04-05T11:35:33.268Z,41.73
2019-04-05T11:38:00.461Z,42.33
2019-04-05T11:40:27.634Z,39.93
2019-04-05T11:42:54.839Z,35.00
2019-04-05T11:45:22.042Z,32.17
2019-04-05T11:47:49.302Z,30.40
2019-04-05T11:50:16.485Z,29.37
2019-04-05T11:52:43.663Z,31.00
2019-04-05T11:55:10.871Z,31.20
2019-04-05T11:57:40.961Z,30.53
2019-04-05T12:00:12.488Z,30.27
2019-04-05T12:02:57.017Z,29.30
2019-04-05T12:05:26.960Z,30.23
2019-04-05T12:07:58.509Z,30.43
2019-04-05T12:10:22.470Z,30.13
2019-04-05T12:12:49.730Z,31.20
2019-04-05T12:15:16.918Z,30.10
2019-04-05T12:17:44.099Z,30.70
2019-04-05T12:20:11.271Z,31.50
2019-04-05T12:22:38.458Z,29.93
2019-04-05T12:25:08.440Z,29.00
2019-04-05T12:27:35.798Z,30.10
2019-04-05T12:30:04.071Z,29.93
2019-04-05T12:32:34.454Z,30.27
2019-04-05T12:35:00.238Z,28.70
2019-04-05T12:37:27.503Z,30.53
2019-04-05T12:39:54.685Z,30.10
2019-04-05T12:42:21.984Z,29.83
2019-04-05T12:44:49.170Z,31.17
2019-04-05T12:47:16.359Z,29.87
2019-04-05T12:49:45.505Z,30.20
2019-04-05T12:52:22.542Z,29.70
2019-04-05T12:54:41.421Z,28.90
2019-04-05T12:57:08.595Z,30.50
2019-04-05T12:59:35.791Z,29.93
2019-04-05T13:02:02.970Z,29.33
2019-04-05T13:04:30.141Z,30.13
2019-04-05T13:06:57.355Z,32.47
2019-04-05T13:09:24.753Z,29.63
2019-04-05T13:11:52.104Z,29.73
2019-04-05T13:14:19.287Z,30.40
2019-04-05T13:16:49.319Z,31.83
2019-04-05T13:19:15.377Z,29.97
2019-04-05T13:21:42.544Z,30.00
2019-04-05T13:24:10.223Z,32.27
2019-04-05T13:26:37.723Z,28.90
2019-04-05T13:29:04.908Z,30.90
2019-04-05T13:31:32.100Z,31.23
2019-04-05T13:33:59.273Z,28.77
2019-04-05T13:36:26.454Z,30.40
2019-04-05T13:38:54.920Z,30.10
2019-04-05T13:41:22.797Z,30.47
2019-04-05T13:43:49.997Z,29.63
2019-04-05T13:46:22.167Z,31.03
2019-04-05T13:48:46.091Z,29.77
2019-04-05T13:51:13.294Z,30.57
2019-04-05T13:53:41.108Z,28.90
2019-04-05T13:56:10.993Z,29.60
2019-04-05T13:58:37.698Z,32.60
2019-04-05T14:01:04.900Z,29.60
2019-04-05T14:03:32.107Z,29.37
2019-04-05T14:05:59.283Z,30.67
2019-04-05T14:08:26.490Z,31.73
2019-04-05T14:10:53.683Z,30.07
2019-04-05T14:13:20.854Z,30.27
2019-04-05T14:15:48.193Z,30.27
2019-04-05T14:18:15.906Z,30.47
2019-04-05T14:20:43.102Z,30.90
2019-04-05T14:23:10.678Z,30.97
2019-04-05T14:25:37.864Z,29.97
2019-04-05T14:28:05.358Z,32.97
2019-04-05T14:30:33.731Z,30.23
2019-04-05T14:33:01.467Z,32.03
2019-04-05T14:35:28.661Z,30.07
2019-04-05T14:37:55.840Z,30.83
2019-04-05T14:40:23.034Z,31.57
2019-04-05T14:42:50.213Z,31.77
2019-04-05T14:45:17.990Z,30.83
2019-04-05T14:47:45.167Z,31.33
2019-04-05T14:50:12.354Z,31.13
2019-04-05T14:52:39.534Z,31.67
2019-04-05T14:55:06.710Z,33.20
2019-04-05T14:57:35.508Z,31.37
2019-04-05T15:00:03.316Z,31.53
2019-04-05T15:02:30.519Z,29.93
2019-04-05T15:04:57.701Z,30.70
2019-04-05T15:07:24.897Z,31.27
2019-04-05T15:09:54.783Z,29.67
2019-04-05T15:12:20.996Z,30.40
2019-04-05T15:14:48.274Z,30.37
2019-04-05T15:17:15.471Z,30.40
2019-04-05T15:19:42.662Z,32.43
2019-04-05T15:22:11.732Z,29.90
2019-04-05T15:24:38.739Z,29.60
2019-04-05T15:27:05.926Z,27.00
2019-04-05T15:29:33.132Z,26.73
2019-04-05T15:32:01.203Z,27.63
2019-04-05T15:34:29.238Z,27.80
2019-04-05T15:36:56.583Z,25.90
2019-04-05T15:39:23.834Z,28.67
2019-04-05T15:41:51.015Z,26.90
2019-04-05T15:44:18.217Z,28.33
2019-04-05T15:46:45.406Z,28.07
2019-04-05T15:49:12.613Z,27.97
2019-04-05T15:51:39.853Z,29.13
2019-04-05T15:54:07.035Z,25.27
2019-04-05T15:56:34.310Z,28.93
2019-04-05T15:59:04.528Z,26.57
2019-04-05T16:01:32.108Z,28.43
2019-04-05T16:04:00.629Z,27.50
2019-04-05T16:06:28.337Z,28.20
2019-04-05T16:08:55.541Z,27.33
2019-04-05T16:11:22.729Z,28.10
2019-04-05T16:13:49.938Z,27.00
2019-04-05T16:16:17.120Z,26.93
2019-04-05T16:18:44.305Z,26.77
2019-04-05T16:21:12.045Z,27.07
2019-04-05T16:23:39.260Z,28.20
2019-04-05T16:26:06.477Z,26.77
2019-04-05T16:28:33.659Z,27.40
2019-04-05T16:31:00.871Z,29.53
2019-04-05T16:33:28.055Z,30.00
2019-04-05T16:35:55.303Z,27.37
2019-04-05T16:38:22.572Z,29.93
2019-04-05T16:40:49.754Z,29.20
2019-04-05T16:43:16.945Z,27.43
2019-04-05T16:45:44.131Z,28.90
2019-04-05T16:48:11.347Z,27.03
2019-04-05T16:50:38.604Z,27.57
2019-04-05T16:53:05.838Z,27.73
2019-04-05T16:55:33.036Z,28.43
2019-04-05T16:58:00.261Z,28.00
2019-04-05T17:00:27.514Z,29.20
2019-04-05T17:02:54.726Z,30.50
2019-04-05T17:05:21.919Z,29.90
2019-04-05T17:07:49.131Z,30.37
2019-04-05T17:10:16.402Z,30.97
2019-04-05T17:12:43.591Z,28.50
2019-04-05T17:15:10.781Z,28.57
2019-04-05T17:17:37.966Z,28.70
2019-04-05T17:20:05.442Z,30.20
2019-04-05T17:22:32.624Z,27.13
2019-04-05T17:24:59.825Z,28.73
2019-04-05T17:27:27.083Z,28.60
2019-04-05T17:29:54.275Z,29.97
2019-04-05T17:32:21.476Z,30.50
2019-04-05T17:34:48.709Z,30.23
2019-04-05T17:37:15.988Z,29.43
2019-04-05T17:39:43.169Z,30.93
2019-04-05T17:42:10.370Z,31.37
2019-04-05T17:44:37.555Z,28.83
2019-04-05T17:47:04.778Z,28.23
2019-04-05T17:49:32.030Z,29.60
2019-04-05T17:51:59.249Z,28.80
2019-04-05T17:54:26.518Z,30.50
2019-04-05T17:56:53.863Z,28.70
2019-04-05T17:59:21.186Z,28.17
2019-04-05T18:01:48.360Z,30.53
2019-04-05T18:04:18.638Z,28.37
2019-04-05T18:06:45.877Z,29.40
2019-04-05T18:09:13.122Z,28.27
2019-04-05T18:11:40.398Z,31.00
2019-04-05T18:14:07.579Z,29.43
2019-04-05T18:16:34.775Z,30.40
2019-04-05T18:19:01.986Z,27.83
2019-04-05T18:21:29.163Z,28.87
2019-04-05T18:23:56.358Z,30.17
2019-04-05T18:26:23.573Z,28.23
2019-04-05T18:28:50.778Z,27.87
2019-04-05T18:31:17.998Z,30.13
2019-04-05T18:33:45.198Z,28.83
2019-04-05T18:36:12.391Z,29.40
2019-04-05T18:38:39.600Z,28.20
2019-04-05T18:41:06.922Z,30.67
2019-04-05T18:43:34.184Z,29.50
2019-04-05T18:46:01.545Z,31.00
2019-04-05T18:48:29.196Z,31.03
2019-04-05T18:50:56.379Z,30.17
2019-04-05T18:53:23.582Z,28.43
2019-04-05T18:55:50.837Z,30.30
2019-04-05T18:58:18.046Z,29.33
2019-04-05T19:00:45.306Z,30.93
2019-04-05T19:03:12.508Z,30.53
2019-04-05T19:05:39.707Z,29.57
2019-04-05T19:08:06.982Z,29.47
2019-04-05T19:10:37.166Z,31.37
2019-04-05T19:13:03.051Z,30.43
2019-04-05T19:15:30.466Z,30.67
2019-04-05T19:17:57.657Z,30.90
2019-04-05T19:20:24.879Z,29.87
2019-04-05T19:22:52.132Z,27.67
2019-04-05T19:25:19.339Z,31.37
2019-04-05T19:27:46.534Z,30.03
2019-04-05T19:50:06.506Z,29.20
2019-04-05T19:52:36.605Z,29.50
2019-04-05T19:55:10.287Z,27.67
2019-04-05T19:57:35.823Z,30.17
2019-04-05T20:00:06.771Z,28.77
2019-04-05T20:02:48.459Z,28.37
2019-04-05T20:05:09.503Z,27.10
2019-04-05T20:07:36.766Z,29.30
2019-04-05T20:10:04.388Z,27.00
2019-04-05T20:12:31.673Z,29.17
2019-04-05T20:14:58.850Z,29.20
2019-04-05T20:17:26.032Z,28.07
2019-04-05T20:19:53.232Z,27.33
2019-04-05T20:22:20.435Z,29.73
2019-04-05T20:24:50.414Z,30.07
2019-04-05T20:27:20.318Z,25.60
2019-04-05T20:29:51.279Z,28.13
2019-04-05T20:32:18.523Z,29.33
2019-04-05T20:34:45.767Z,28.07
2019-04-05T20:37:13.045Z,29.50
2019-04-05T20:39:40.269Z,28.87
2019-04-05T20:42:07.556Z,27.47
2019-04-05T20:44:34.739Z,28.47
2019-04-05T20:47:01.925Z,29.17
2019-04-05T20:49:32.220Z,30.40
2019-04-05T20:52:13.473Z,27.50
2019-04-05T20:54:30.273Z,29.03
2019-04-05T20:57:00.791Z,27.33
2019-04-05T20:59:31.852Z,28.63
2019-04-05T21:01:58.555Z,27.97
2019-04-05T21:04:25.747Z,28.43
2019-04-05T21:06:54.595Z,27.50
2019-04-05T21:09:28.627Z,28.47
2019-04-05T21:11:57.174Z,27.53
2019-04-05T21:14:31.846Z,28.77
2019-04-05T21:17:00.718Z,30.33
2019-04-05T21:19:36.357Z,29.97
2019-04-05T21:22:03.548Z,27.50
2019-04-05T21:24:36.138Z,27.47
2019-04-05T21:27:01.442Z,29.20
2019-04-05T21:29:28.690Z,28.73
2019-04-05T21:31:55.902Z,28.40
2019-04-05T21:34:23.145Z,27.93
2019-04-05T21:36:50.348Z,28.20
2019-04-05T21:39:17.533Z,31.10
2019-04-05T21:41:44.733Z,28.80
2019-04-05T21:44:11.986Z,27.87
2019-04-05T21:46:39.185Z,28.67
2019-04-05T21:49:06.387Z,27.03
2019-04-05T21:51:33.557Z,28.67
2019-04-05T21:54:06.136Z,29.73
2019-04-05T21:56:36.567Z,26.77
2019-04-05T21:59:05.597Z,28.37
2019-04-05T22:01:32.786Z,29.07
2019-04-05T22:03:59.983Z,28.43
2019-04-05T22:06:27.255Z,27.33
2019-04-05T22:08:54.447Z,28.43
2019-04-05T22:11:21.746Z,29.13
2019-04-05T22:13:49.025Z,27.37
2019-04-05T22:16:16.284Z,27.53
2019-04-05T22:18:43.476Z,28.77
2019-04-05T22:21:10.692Z,27.87
2019-04-05T22:23:37.886Z,29.50
2019-04-05T22:26:05.075Z,28.23
2019-04-05T22:28:32.359Z,28.83
2019-04-05T22:30:59.554Z,28.47
2019-04-05T22:33:26.738Z,28.43
2019-04-05T22:35:53.953Z,29.67
2019-04-05T22:38:21.216Z,30.60
2019-04-05T22:40:48.408Z,27.67
2019-04-05T22:43:15.603Z,28.67
2019-04-05T22:45:45.675Z,27.37
2019-04-05T22:48:12.949Z,29.37
2019-04-05T22:50:40.169Z,28.70
2019-04-05T22:53:07.407Z,29.30
2019-04-05T22:55:34.904Z,28.40
2019-04-05T22:58:02.090Z,28.67
2019-04-05T23:00:33.398Z,28.57
2019-04-05T23:03:00.692Z,29.50
2019-04-05T23:05:39.669Z,28.97
2019-04-05T23:08:19.389Z,28.53
2019-04-05T23:13:39.786Z,30.03
2019-04-05T23:16:09.968Z,29.13
2019-04-05T23:18:48.711Z,30.80
2019-04-05T23:21:15.997Z,30.43
2019-04-05T23:23:45.061Z,29.13
2019-04-05T23:26:12.298Z,28.77
2019-04-05T23:28:39.512Z,29.13
2019-04-05T23:31:06.690Z,28.97
2019-04-05T23:33:33.870Z,29.57
2019-04-05T23:36:01.093Z,28.23
2019-04-05T23:38:28.661Z,27.60
2019-04-05T23:40:55.916Z,28.17
2019-04-05T23:43:23.179Z,27.70
2019-04-05T23:45:50.375Z,29.80
2019-04-05T23:48:17.561Z,29.47
2019-04-05T23:50:44.787Z,27.87
2019-04-05T23:53:12.003Z,27.23
2019-04-05T23:55:39.205Z,28.50
2019-04-05T23:58:06.390Z,26.17
